createdAt,value
2022-12-12T00:02:01.930Z,-3.10
2022-12-12T00:07:03.893Z,-3.10
2022-12-12T00:12:06.010Z,-3.10
2022-12-12T00:17:07.816Z,-3.00
2022-12-12T00:22:10.232Z,-3.00
2022-12-12T00:27:12.088Z,-3.10
2022-12-12T00:32:13.907Z,-3.10
2022-12-12T00:37:16.201Z,-3.10
2022-12-12T00:42:18.013Z,-3.00
2022-12-12T00:47:19.818Z,-3.00
2022-12-12T00:52:21.729Z,-3.00
2022-12-12T00:57:23.546Z,-3.00
2022-12-12T01:02:28.244Z,-3.10
2022-12-12T01:07:30.363Z,-3.10
2022-12-12T01:12:32.625Z,-3.00
2022-12-12T01:17:37.803Z,-3.00
2022-12-12T01:22:39.662Z,-3.00
2022-12-12T01:27:41.933Z,-3.10
2022-12-12T01:32:43.994Z,-3.10
2022-12-12T01:37:45.804Z,-3.10
2022-12-12T01:42:48.215Z,-3.10
2022-12-12T01:47:49.994Z,-3.10
2022-12-12T01:52:51.854Z,-3.10
2022-12-12T01:57:54.705Z,-3.10
2022-12-12T02:02:57.255Z,-3.10
2022-12-12T02:08:03.016Z,-3.10
2022-12-12T02:13:13.805Z,-3.10
2022-12-12T02:18:22.094Z,-3.20
2022-12-12T02:24:03.958Z,-3.20
2022-12-12T02:29:25.797Z,-3.20
2022-12-12T02:35:03.051Z,-3.20
2022-12-12T02:40:42.298Z,-3.20
2022-12-12T02:45:54.114Z,-3.10
2022-12-12T02:50:58.933Z,-3.10
2022-12-12T02:56:42.525Z,-3.20
2022-12-12T03:01:51.062Z,-3.10
2022-12-12T03:07:34.274Z,-3.20
2022-12-12T03:13:14.602Z,-3.30
2022-12-12T03:18:20.649Z,-3.30
2022-12-12T03:23:27.411Z,-3.30
2022-12-12T03:28:38.644Z,-3.30
2022-12-12T03:34:04.135Z,-3.40
2022-12-12T03:39:13.327Z,-3.30
2022-12-12T03:44:20.565Z,-3.30
2022-12-12T03:49:44.553Z,-3.30
2022-12-12T03:54:52.365Z,-3.40
2022-12-12T04:00:08.974Z,-3.30
2022-12-12T04:05:25.451Z,-3.30
2022-12-12T04:10:51.633Z,-3.30
2022-12-12T04:16:04.894Z,-3.30
2022-12-12T04:22:01.295Z,-3.40
2022-12-12T04:27:20.206Z,-3.30
2022-12-12T04:32:28.425Z,-3.40
2022-12-12T04:37:35.708Z,-3.30
2022-12-12T04:42:42.439Z,-3.30
2022-12-12T04:47:47.300Z,-3.40
2022-12-12T04:52:50.622Z,-3.30
2022-12-12T04:57:54.830Z,-3.40
2022-12-12T05:03:19.248Z,-3.40
2022-12-12T05:08:33.401Z,-3.30
2022-12-12T05:13:40.978Z,-3.30
2022-12-12T05:18:42.773Z,-3.30
2022-12-12T05:23:45.053Z,-3.30
2022-12-12T05:28:46.967Z,-3.30
2022-12-12T05:33:49.063Z,-3.30
2022-12-12T05:38:51.031Z,-3.30
2022-12-12T05:43:52.822Z,-3.20
2022-12-12T05:48:54.656Z,-3.20
2022-12-12T05:53:57.142Z,-3.20
2022-12-12T05:58:58.950Z,-3.20
2022-12-12T06:04:00.834Z,-3.20
2022-12-12T06:09:02.823Z,-3.20
2022-12-12T06:14:04.667Z,-3.20
2022-12-12T06:19:06.486Z,-3.20
2022-12-12T06:24:08.616Z,-3.20
2022-12-12T06:29:10.435Z,-3.10
2022-12-12T06:34:12.231Z,-3.10
2022-12-12T06:39:14.041Z,-3.20
2022-12-12T06:44:16.074Z,-3.10
2022-12-12T06:49:17.949Z,-3.10
2022-12-12T06:54:20.856Z,-3.10
2022-12-12T06:59:22.681Z,-3.10
2022-12-12T07:04:25.826Z,-3.00
2022-12-12T07:09:28.381Z,-3.00
2022-12-12T07:14:30.199Z,-2.90
2022-12-12T07:19:32.525Z,-2.90
2022-12-12T07:24:34.366Z,-2.90
2022-12-12T07:29:36.150Z,-2.90
2022-12-12T07:34:38.002Z,-2.90
2022-12-12T07:39:39.983Z,-2.80
2022-12-12T07:44:41.943Z,-2.80
2022-12-12T07:49:43.765Z,-2.80
2022-12-12T10:21:28.009Z,-1.40
2022-12-12T10:26:57.860Z,-1.10
2022-12-12T10:32:35.365Z,-1.10
2022-12-12T10:38:34.183Z,-1.20
2022-12-12T10:44:04.618Z,-1.30
2022-12-12T10:49:27.508Z,-1.30
2022-12-12T10:54:59.790Z,-1.40
2022-12-12T11:00:30.430Z,-1.30
2022-12-12T11:05:55.852Z,-1.40
2022-12-12T11:11:29.559Z,-1.40
2022-12-12T11:16:52.513Z,-1.60
2022-12-12T11:22:18.696Z,-1.70
2022-12-12T11:27:42.401Z,-1.70
2022-12-12T11:33:07.927Z,-1.80
2022-12-12T11:38:41.837Z,-1.90
2022-12-12T11:44:04.813Z,-1.70
2022-12-12T11:49:27.469Z,-1.70
2022-12-12T11:54:50.644Z,-1.70
2022-12-12T12:00:25.182Z,-1.80
2022-12-12T12:05:57.278Z,-1.90
2022-12-12T12:11:33.961Z,-2.00
2022-12-12T12:17:10.134Z,-1.90
2022-12-12T12:23:18.450Z,-2.00
2022-12-12T12:29:23.220Z,-2.00
2022-12-12T12:34:54.691Z,-2.00
2022-12-12T12:40:39.269Z,-1.90
2022-12-12T12:46:23.106Z,-2.00
2022-12-12T12:51:53.266Z,-2.00
2022-12-12T12:57:33.235Z,-2.10
2022-12-12T13:03:17.612Z,-2.10
2022-12-12T13:09:09.876Z,-2.00
2022-12-12T13:14:47.887Z,-2.00
2022-12-12T13:20:19.755Z,-2.10
2022-12-12T13:26:05.370Z,-2.10
2022-12-12T13:31:36.991Z,-2.10
2022-12-12T13:36:59.911Z,-2.10
2022-12-12T13:42:22.477Z,-2.10
2022-12-12T13:47:55.361Z,-2.10
2022-12-12T13:53:20.420Z,-2.00
2022-12-12T13:58:42.852Z,-2.10
2022-12-12T14:04:05.717Z,-2.10
2022-12-12T14:09:48.331Z,-2.10
2022-12-12T14:15:19.811Z,-2.20
2022-12-12T14:20:44.020Z,-2.20
2022-12-12T14:26:36.169Z,-2.30
2022-12-12T14:32:14.402Z,-2.30
2022-12-12T14:38:10.953Z,-2.30
2022-12-12T14:43:43.473Z,-2.30
2022-12-12T14:49:06.656Z,-2.30
2022-12-12T14:54:36.554Z,-2.30
2022-12-12T15:00:00.860Z,-2.30
2022-12-12T15:05:24.028Z,-2.40
2022-12-12T15:11:00.111Z,-2.30
2022-12-12T15:16:34.080Z,-2.30
2022-12-12T15:21:58.338Z,-2.30
2022-12-12T15:27:45.995Z,-2.30
2022-12-12T15:33:22.580Z,-2.30
2022-12-12T15:38:45.448Z,-2.30
2022-12-12T15:44:11.482Z,-2.20
2022-12-12T15:49:43.509Z,-2.20
2022-12-12T16:41:18.718Z,-2.10
2022-12-12T16:46:41.279Z,-2.00
2022-12-12T16:52:04.039Z,-2.00
2022-12-12T17:36:41.294Z,-2.30
2022-12-12T17:42:03.459Z,-1.90
2022-12-12T17:47:25.967Z,-1.90
2022-12-12T17:52:48.086Z,-1.90
2022-12-12T17:58:10.189Z,-1.90
2022-12-12T18:03:32.286Z,-1.90
2022-12-12T18:08:55.354Z,-1.90
2022-12-12T18:14:06.112Z,-1.90
2022-12-12T18:19:15.156Z,-1.80
2022-12-12T18:24:21.232Z,-1.80
2022-12-12T18:29:25.159Z,-1.70
2022-12-12T18:34:28.407Z,-1.70
2022-12-12T18:39:31.994Z,-1.70
2022-12-12T18:44:39.073Z,-1.60
2022-12-12T18:49:42.281Z,-1.60
2022-12-12T18:54:45.793Z,-1.60
2022-12-12T18:59:49.076Z,-1.40
2022-12-12T19:04:54.345Z,-1.40
2022-12-12T19:09:57.870Z,-1.40
2022-12-12T19:15:16.746Z,-1.30
2022-12-12T19:20:20.470Z,-1.40
2022-12-12T19:25:23.459Z,-1.30
2022-12-12T19:30:30.285Z,-1.40
2022-12-12T19:35:37.757Z,-1.30
2022-12-12T19:40:41.308Z,-1.30
2022-12-12T19:45:44.707Z,-1.30
2022-12-12T19:50:49.225Z,-1.30
2022-12-12T19:55:58.679Z,-1.30
2022-12-12T20:01:17.095Z,-1.30
2022-12-12T20:06:20.595Z,-1.20
2022-12-12T20:11:23.969Z,-1.20
2022-12-12T20:16:29.255Z,-1.30
2022-12-12T20:26:56.633Z,-1.30
2022-12-12T20:32:17.969Z,-1.30
2022-12-12T20:37:21.544Z,-1.30
2022-12-12T20:42:24.882Z,-1.30
2022-12-12T20:47:32.527Z,-1.40
2022-12-12T20:52:35.602Z,-1.40
2022-12-12T20:57:38.849Z,-1.30
2022-12-12T21:02:41.868Z,-1.40
2022-12-12T21:07:45.366Z,-1.50
2022-12-12T21:12:48.212Z,-1.50
2022-12-12T21:17:51.155Z,-1.40
2022-12-12T21:22:53.913Z,-1.40
2022-12-12T21:27:57.441Z,-1.50
2022-12-12T21:33:00.225Z,-1.50
2022-12-12T21:38:04.255Z,-1.50
2022-12-12T21:43:07.159Z,-1.50
2022-12-12T21:48:09.997Z,-1.60
2022-12-12T21:53:32.149Z,-1.60
2022-12-12T21:58:37.060Z,-1.50
2022-12-12T22:03:39.969Z,-1.80
2022-12-12T22:08:43.612Z,-1.90
2022-12-12T22:13:46.691Z,-1.90
2022-12-12T22:18:50.995Z,-1.80
2022-12-12T22:23:58.018Z,-1.90
2022-12-12T22:29:04.183Z,-2.00
2022-12-12T22:34:17.136Z,-2.00
2022-12-12T22:39:26.479Z,-2.00
2022-12-12T22:44:29.573Z,-2.00
2022-12-12T22:49:32.519Z,-2.00
2022-12-12T22:54:34.423Z,-2.10
2022-12-12T22:59:36.214Z,-2.10
2022-12-12T23:04:38.094Z,-2.20
2022-12-12T23:09:52.293Z,-2.20
2022-12-12T23:14:54.486Z,-2.20
2022-12-12T23:19:56.304Z,-2.20
2022-12-12T23:24:58.139Z,-2.20
2022-12-12T23:29:59.979Z,-2.20
2022-12-12T23:35:01.870Z,-2.30
2022-12-12T23:40:05.227Z,-2.40
2022-12-12T23:45:07.206Z,-2.40
2022-12-12T23:50:09.294Z,-2.40
2022-12-12T23:55:11.323Z,-2.40
